sensor_id;sensor_type;location;lat;lon;timestamp;P1;durP1;ratioP1;P2;durP2;ratioP2
78372;SDS011;67656;52.074;4.758;2023-07-31T00:01:14;27.25;;;5.13;;
78372;SDS011;67656;52.074;4.758;2023-07-31T00:06:14;35.28;;;5.93;;
78372;SDS011;67656;52.074;4.758;2023-07-31T00:11:15;24.60;;;5.25;;
78372;SDS011;67656;52.074;4.758;2023-07-31T00:16:15;19.58;;;4.38;;
78372;SDS011;67656;52.074;4.758;2023-07-31T00:21:15;21.73;;;4.65;;
78372;SDS011;67656;52.074;4.758;2023-07-31T00:26:16;24.02;;;4.53;;
78372;SDS011;67656;52.074;4.758;2023-07-31T00:31:16;23.85;;;4.53;;
78372;SDS011;67656;52.074;4.758;2023-07-31T00:36:17;24.08;;;4.55;;
78372;SDS011;67656;52.074;4.758;2023-07-31T00:41:17;22.67;;;4.55;;
78372;SDS011;67656;52.074;4.758;2023-07-31T00:46:17;30.60;;;4.38;;
78372;SDS011;67656;52.074;4.758;2023-07-31T00:51:18;26.73;;;4.85;;
78372;SDS011;67656;52.074;4.758;2023-07-31T00:56:18;27.00;;;4.40;;
78372;SDS011;67656;52.074;4.758;2023-07-31T01:01:19;29.10;;;5.68;;
78372;SDS011;67656;52.074;4.758;2023-07-31T01:12:00;27.33;;;5.15;;
78372;SDS011;67656;52.074;4.758;2023-07-31T01:17:02;37.28;;;6.18;;
78372;SDS011;67656;52.074;4.758;2023-07-31T01:27:12;19.15;;;4.70;;
78372;SDS011;67656;52.074;4.758;2023-07-31T01:32:16;24.40;;;4.85;;
78372;SDS011;67656;52.074;4.758;2023-07-31T01:37:18;21.95;;;4.13;;
78372;SDS011;67656;52.074;4.758;2023-07-31T01:42:18;20.35;;;3.97;;
78372;SDS011;67656;52.074;4.758;2023-07-31T01:47:18;19.83;;;4.60;;
78372;SDS011;67656;52.074;4.758;2023-07-31T01:52:19;24.30;;;4.57;;
78372;SDS011;67656;52.074;4.758;2023-07-31T01:57:19;26.17;;;5.10;;
78372;SDS011;67656;52.074;4.758;2023-07-31T02:02:20;27.55;;;5.00;;
78372;SDS011;67656;52.074;4.758;2023-07-31T02:07:20;29.17;;;5.13;;
78372;SDS011;67656;52.074;4.758;2023-07-31T02:12:21;26.52;;;5.10;;
78372;SDS011;67656;52.074;4.758;2023-07-31T02:17:21;28.85;;;5.00;;
78372;SDS011;67656;52.074;4.758;2023-07-31T02:22:21;24.63;;;4.35;;
78372;SDS011;67656;52.074;4.758;2023-07-31T02:27:22;20.60;;;4.90;;
78372;SDS011;67656;52.074;4.758;2023-07-31T02:32:22;26.80;;;5.78;;
78372;SDS011;67656;52.074;4.758;2023-07-31T02:37:23;27.17;;;5.05;;
78372;SDS011;67656;52.074;4.758;2023-07-31T02:42:23;21.27;;;5.60;;
78372;SDS011;67656;52.074;4.758;2023-07-31T02:47:24;19.55;;;5.32;;
78372;SDS011;67656;52.074;4.758;2023-07-31T02:52:24;17.90;;;4.55;;
78372;SDS011;67656;52.074;4.758;2023-07-31T02:57:24;23.73;;;5.03;;
78372;SDS011;67656;52.074;4.758;2023-07-31T03:02:25;21.88;;;4.72;;
78372;SDS011;67656;52.074;4.758;2023-07-31T03:07:25;16.10;;;4.32;;
78372;SDS011;67656;52.074;4.758;2023-07-31T03:12:26;18.63;;;4.38;;
78372;SDS011;67656;52.074;4.758;2023-07-31T03:17:26;22.88;;;4.85;;
78372;SDS011;67656;52.074;4.758;2023-07-31T03:22:26;22.75;;;4.57;;
78372;SDS011;67656;52.074;4.758;2023-07-31T03:27:27;21.50;;;4.30;;
78372;SDS011;67656;52.074;4.758;2023-07-31T03:32:27;22.45;;;4.70;;
78372;SDS011;67656;52.074;4.758;2023-07-31T03:37:27;18.70;;;4.55;;
78372;SDS011;67656;52.074;4.758;2023-07-31T03:42:28;19.00;;;4.70;;
78372;SDS011;67656;52.074;4.758;2023-07-31T03:47:28;15.20;;;3.80;;
78372;SDS011;67656;52.074;4.758;2023-07-31T03:52:29;23.30;;;4.72;;
78372;SDS011;67656;52.074;4.758;2023-07-31T03:57:29;23.70;;;4.50;;
78372;SDS011;67656;52.074;4.758;2023-07-31T04:02:29;19.98;;;4.93;;
78372;SDS011;67656;52.074;4.758;2023-07-31T04:07:31;23.92;;;4.07;;
78372;SDS011;67656;52.074;4.758;2023-07-31T04:12:31;19.80;;;4.50;;
78372;SDS011;67656;52.074;4.758;2023-07-31T04:17:32;19.60;;;5.22;;
78372;SDS011;67656;52.074;4.758;2023-07-31T04:22:32;22.02;;;4.97;;
78372;SDS011;67656;52.074;4.758;2023-07-31T04:27:32;22.42;;;4.78;;
78372;SDS011;67656;52.074;4.758;2023-07-31T04:32:33;16.50;;;4.80;;
78372;SDS011;67656;52.074;4.758;2023-07-31T04:37:33;17.98;;;4.32;;
78372;SDS011;67656;52.074;4.758;2023-07-31T04:42:33;15.93;;;4.28;;
78372;SDS011;67656;52.074;4.758;2023-07-31T04:47:34;13.63;;;3.92;;
78372;SDS011;67656;52.074;4.758;2023-07-31T04:52:34;13.73;;;3.70;;
78372;SDS011;67656;52.074;4.758;2023-07-31T04:57:35;10.70;;;3.10;;
78372;SDS011;67656;52.074;4.758;2023-07-31T05:02:35;9.10;;;2.80;;
78372;SDS011;67656;52.074;4.758;2023-07-31T05:07:35;10.40;;;2.88;;
78372;SDS011;67656;52.074;4.758;2023-07-31T05:12:36;9.82;;;3.35;;
78372;SDS011;67656;52.074;4.758;2023-07-31T05:17:36;9.95;;;3.85;;
78372;SDS011;67656;52.074;4.758;2023-07-31T05:22:36;11.50;;;3.38;;
78372;SDS011;67656;52.074;4.758;2023-07-31T05:27:37;10.75;;;2.97;;
78372;SDS011;67656;52.074;4.758;2023-07-31T05:32:37;9.00;;;3.03;;
78372;SDS011;67656;52.074;4.758;2023-07-31T05:37:38;13.77;;;3.28;;
78372;SDS011;67656;52.074;4.758;2023-07-31T05:42:38;10.38;;;2.72;;
78372;SDS011;67656;52.074;4.758;2023-07-31T05:47:39;8.00;;;2.60;;
78372;SDS011;67656;52.074;4.758;2023-07-31T05:52:39;10.88;;;2.53;;
78372;SDS011;67656;52.074;4.758;2023-07-31T05:57:40;7.95;;;2.90;;
78372;SDS011;67656;52.074;4.758;2023-07-31T06:02:40;11.85;;;2.92;;
78372;SDS011;67656;52.074;4.758;2023-07-31T06:07:40;8.20;;;2.83;;
78372;SDS011;67656;52.074;4.758;2023-07-31T06:12:41;6.95;;;2.63;;
78372;SDS011;67656;52.074;4.758;2023-07-31T06:17:41;9.95;;;2.47;;
78372;SDS011;67656;52.074;4.758;2023-07-31T06:22:42;7.07;;;2.28;;
78372;SDS011;67656;52.074;4.758;2023-07-31T06:27:42;6.18;;;2.60;;
78372;SDS011;67656;52.074;4.758;2023-07-31T06:32:43;6.93;;;2.33;;
78372;SDS011;67656;52.074;4.758;2023-07-31T06:37:43;9.02;;;2.50;;
78372;SDS011;67656;52.074;4.758;2023-07-31T06:42:44;7.05;;;2.13;;
78372;SDS011;67656;52.074;4.758;2023-07-31T06:47:44;7.32;;;2.00;;
78372;SDS011;67656;52.074;4.758;2023-07-31T06:52:44;4.65;;;1.90;;
78372;SDS011;67656;52.074;4.758;2023-07-31T06:57:45;5.57;;;1.90;;
78372;SDS011;67656;52.074;4.758;2023-07-31T07:02:46;3.35;;;1.55;;
78372;SDS011;67656;52.074;4.758;2023-07-31T07:07:48;3.72;;;1.70;;
78372;SDS011;67656;52.074;4.758;2023-07-31T07:12:49;5.57;;;2.05;;
78372;SDS011;67656;52.074;4.758;2023-07-31T07:17:50;3.95;;;1.75;;
78372;SDS011;67656;52.074;4.758;2023-07-31T07:22:50;5.22;;;1.80;;
78372;SDS011;67656;52.074;4.758;2023-07-31T07:27:51;2.92;;;1.75;;
78372;SDS011;67656;52.074;4.758;2023-07-31T07:32:52;4.07;;;1.42;;
78372;SDS011;67656;52.074;4.758;2023-07-31T07:37:52;4.38;;;1.48;;
78372;SDS011;67656;52.074;4.758;2023-07-31T07:42:53;3.17;;;1.20;;
78372;SDS011;67656;52.074;4.758;2023-07-31T07:47:53;3.58;;;1.40;;
78372;SDS011;67656;52.074;4.758;2023-07-31T07:52:53;3.13;;;1.48;;
78372;SDS011;67656;52.074;4.758;2023-07-31T07:57:54;3.03;;;1.40;;
78372;SDS011;67656;52.074;4.758;2023-07-31T08:02:54;2.22;;;1.35;;
78372;SDS011;67656;52.074;4.758;2023-07-31T08:07:55;2.05;;;1.10;;
78372;SDS011;67656;52.074;4.758;2023-07-31T08:12:55;2.35;;;0.98;;
78372;SDS011;67656;52.074;4.758;2023-07-31T08:17:56;2.30;;;1.15;;
78372;SDS011;67656;52.074;4.758;2023-07-31T08:22:56;1.80;;;1.05;;
78372;SDS011;67656;52.074;4.758;2023-07-31T08:27:56;1.85;;;0.85;;
78372;SDS011;67656;52.074;4.758;2023-07-31T08:32:57;1.50;;;0.82;;
78372;SDS011;67656;52.074;4.758;2023-07-31T08:37:57;1.85;;;1.00;;
78372;SDS011;67656;52.074;4.758;2023-07-31T08:42:58;2.30;;;0.70;;
78372;SDS011;67656;52.074;4.758;2023-07-31T08:47:59;4.43;;;0.80;;
78372;SDS011;67656;52.074;4.758;2023-07-31T08:52:59;1.20;;;0.60;;
78372;SDS011;67656;52.074;4.758;2023-07-31T08:58:00;0.93;;;0.70;;
78372;SDS011;67656;52.074;4.758;2023-07-31T09:03:07;1.70;;;0.82;;
78372;SDS011;67656;52.074;4.758;2023-07-31T09:08:09;1.75;;;0.90;;
78372;SDS011;67656;52.074;4.758;2023-07-31T09:13:10;4.32;;;1.38;;
78372;SDS011;67656;52.074;4.758;2023-07-31T09:18:11;2.85;;;1.40;;
78372;SDS011;67656;52.074;4.758;2023-07-31T09:23:13;4.22;;;1.67;;
78372;SDS011;67656;52.074;4.758;2023-07-31T09:28:14;4.97;;;2.05;;
78372;SDS011;67656;52.074;4.758;2023-07-31T09:33:14;6.93;;;2.17;;
78372;SDS011;67656;52.074;4.758;2023-07-31T09:38:15;5.00;;;1.98;;
78372;SDS011;67656;52.074;4.758;2023-07-31T09:43:17;4.50;;;2.47;;
78372;SDS011;67656;52.074;4.758;2023-07-31T09:48:19;4.27;;;1.83;;
78372;SDS011;67656;52.074;4.758;2023-07-31T09:53:19;3.53;;;2.00;;
78372;SDS011;67656;52.074;4.758;2023-07-31T09:58:29;4.90;;;1.77;;
78372;SDS011;67656;52.074;4.758;2023-07-31T10:03:29;6.40;;;2.22;;
78372;SDS011;67656;52.074;4.758;2023-07-31T10:08:32;6.23;;;1.90;;
78372;SDS011;67656;52.074;4.758;2023-07-31T10:13:36;2.88;;;1.88;;
78372;SDS011;67656;52.074;4.758;2023-07-31T10:18:37;3.13;;;1.90;;
78372;SDS011;67656;52.074;4.758;2023-07-31T10:23:39;5.03;;;1.87;;
78372;SDS011;67656;52.074;4.758;2023-07-31T10:28:42;4.25;;;2.00;;
78372;SDS011;67656;52.074;4.758;2023-07-31T10:33:44;3.17;;;1.83;;
78372;SDS011;67656;52.074;4.758;2023-07-31T10:38:45;4.63;;;2.00;;
78372;SDS011;67656;52.074;4.758;2023-07-31T10:43:46;5.43;;;2.40;;
78372;SDS011;67656;52.074;4.758;2023-07-31T10:48:46;5.47;;;2.08;;
78372;SDS011;67656;52.074;4.758;2023-07-31T10:54:11;6.88;;;2.58;;
78372;SDS011;67656;52.074;4.758;2023-07-31T10:59:12;8.00;;;2.42;;
78372;SDS011;67656;52.074;4.758;2023-07-31T11:04:13;8.75;;;2.83;;
78372;SDS011;67656;52.074;4.758;2023-07-31T11:09:14;7.65;;;1.80;;
78372;SDS011;67656;52.074;4.758;2023-07-31T11:14:14;11.00;;;2.53;;
78372;SDS011;67656;52.074;4.758;2023-07-31T11:19:14;6.03;;;1.70;;
78372;SDS011;67656;52.074;4.758;2023-07-31T11:24:20;10.00;;;2.30;;
78372;SDS011;67656;52.074;4.758;2023-07-31T11:29:21;7.03;;;2.17;;
78372;SDS011;67656;52.074;4.758;2023-07-31T11:34:27;8.98;;;2.55;;
78372;SDS011;67656;52.074;4.758;2023-07-31T11:39:28;7.18;;;2.00;;
78372;SDS011;67656;52.074;4.758;2023-07-31T11:44:36;6.38;;;2.00;;
78372;SDS011;67656;52.074;4.758;2023-07-31T11:49:38;9.70;;;2.63;;
78372;SDS011;67656;52.074;4.758;2023-07-31T11:54:40;6.10;;;2.30;;
78372;SDS011;67656;52.074;4.758;2023-07-31T11:59:41;5.63;;;1.88;;
78372;SDS011;67656;52.074;4.758;2023-07-31T12:04:42;7.15;;;2.08;;
78372;SDS011;67656;52.074;4.758;2023-07-31T12:09:53;5.50;;;1.90;;
78372;SDS011;67656;52.074;4.758;2023-07-31T12:14:55;9.35;;;2.72;;
78372;SDS011;67656;52.074;4.758;2023-07-31T12:19:56;8.52;;;2.70;;
78372;SDS011;67656;52.074;4.758;2023-07-31T12:24:56;6.72;;;2.55;;
78372;SDS011;67656;52.074;4.758;2023-07-31T12:29:56;4.97;;;2.00;;
78372;SDS011;67656;52.074;4.758;2023-07-31T12:34:59;6.40;;;2.00;;
78372;SDS011;67656;52.074;4.758;2023-07-31T12:40:00;5.10;;;2.20;;
78372;SDS011;67656;52.074;4.758;2023-07-31T12:45:00;7.75;;;2.20;;
78372;SDS011;67656;52.074;4.758;2023-07-31T12:50:00;7.53;;;2.17;;
78372;SDS011;67656;52.074;4.758;2023-07-31T12:55:01;5.70;;;2.38;;
78372;SDS011;67656;52.074;4.758;2023-07-31T13:00:02;6.35;;;2.05;;
78372;SDS011;67656;52.074;4.758;2023-07-31T13:05:03;4.15;;;2.05;;
78372;SDS011;67656;52.074;4.758;2023-07-31T13:10:03;5.07;;;2.10;;
78372;SDS011;67656;52.074;4.758;2023-07-31T13:15:04;5.28;;;1.95;;
78372;SDS011;67656;52.074;4.758;2023-07-31T13:20:06;2.70;;;1.50;;
78372;SDS011;67656;52.074;4.758;2023-07-31T13:25:07;3.28;;;1.88;;
78372;SDS011;67656;52.074;4.758;2023-07-31T13:30:07;3.13;;;1.85;;
78372;SDS011;67656;52.074;4.758;2023-07-31T13:35:08;4.32;;;2.20;;
78372;SDS011;67656;52.074;4.758;2023-07-31T13:40:09;3.35;;;1.92;;
78372;SDS011;67656;52.074;4.758;2023-07-31T13:45:10;3.42;;;1.70;;
78372;SDS011;67656;52.074;4.758;2023-07-31T13:50:10;2.33;;;1.33;;
78372;SDS011;67656;52.074;4.758;2023-07-31T13:55:10;1.85;;;1.48;;
78372;SDS011;67656;52.074;4.758;2023-07-31T14:00:11;2.08;;;1.40;;
78372;SDS011;67656;52.074;4.758;2023-07-31T14:05:12;3.53;;;1.70;;
78372;SDS011;67656;52.074;4.758;2023-07-31T14:10:13;1.70;;;1.38;;
78372;SDS011;67656;52.074;4.758;2023-07-31T14:15:13;2.55;;;1.50;;
78372;SDS011;67656;52.074;4.758;2023-07-31T14:20:13;2.47;;;2.10;;
78372;SDS011;67656;52.074;4.758;2023-07-31T14:25:14;2.40;;;2.10;;
78372;SDS011;67656;52.074;4.758;2023-07-31T14:30:14;2.30;;;1.92;;
78372;SDS011;67656;52.074;4.758;2023-07-31T14:35:15;2.88;;;2.03;;
78372;SDS011;67656;52.074;4.758;2023-07-31T14:40:15;2.90;;;1.77;;
78372;SDS011;67656;52.074;4.758;2023-07-31T14:45:15;2.45;;;1.60;;
78372;SDS011;67656;52.074;4.758;2023-07-31T14:50:16;2.95;;;1.40;;
78372;SDS011;67656;52.074;4.758;2023-07-31T14:55:17;2.15;;;1.50;;
78372;SDS011;67656;52.074;4.758;2023-07-31T15:00:18;5.28;;;1.50;;
78372;SDS011;67656;52.074;4.758;2023-07-31T15:05:18;2.70;;;1.23;;
78372;SDS011;67656;52.074;4.758;2023-07-31T15:10:19;2.63;;;1.35;;
78372;SDS011;67656;52.074;4.758;2023-07-31T15:15:19;3.90;;;1.48;;
78372;SDS011;67656;52.074;4.758;2023-07-31T15:20:19;2.42;;;1.30;;
78372;SDS011;67656;52.074;4.758;2023-07-31T15:25:20;4.50;;;1.38;;
78372;SDS011;67656;52.074;4.758;2023-07-31T15:30:20;3.22;;;1.40;;
78372;SDS011;67656;52.074;4.758;2023-07-31T15:35:21;2.53;;;1.23;;
78372;SDS011;67656;52.074;4.758;2023-07-31T15:40:21;2.35;;;1.08;;
78372;SDS011;67656;52.074;4.758;2023-07-31T15:45:22;3.17;;;1.10;;
78372;SDS011;67656;52.074;4.758;2023-07-31T15:50:22;1.98;;;1.30;;
78372;SDS011;67656;52.074;4.758;2023-07-31T15:55:23;1.48;;;1.15;;
78372;SDS011;67656;52.074;4.758;2023-07-31T16:00:23;2.35;;;1.38;;
78372;SDS011;67656;52.074;4.758;2023-07-31T16:05:23;4.95;;;1.40;;
78372;SDS011;67656;52.074;4.758;2023-07-31T16:10:24;1.15;;;0.60;;
78372;SDS011;67656;52.074;4.758;2023-07-31T16:15:24;2.40;;;1.10;;
78372;SDS011;67656;52.074;4.758;2023-07-31T16:20:25;2.08;;;1.30;;
78372;SDS011;67656;52.074;4.758;2023-07-31T16:25:26;3.10;;;2.00;;
78372;SDS011;67656;52.074;4.758;2023-07-31T16:30:26;3.47;;;1.80;;
78372;SDS011;67656;52.074;4.758;2023-07-31T16:35:27;5.72;;;1.60;;
78372;SDS011;67656;52.074;4.758;2023-07-31T16:40:27;3.53;;;1.77;;
78372;SDS011;67656;52.074;4.758;2023-07-31T16:45:28;3.53;;;2.15;;
78372;SDS011;67656;52.074;4.758;2023-07-31T16:50:28;4.22;;;2.10;;
78372;SDS011;67656;52.074;4.758;2023-07-31T16:55:29;2.63;;;1.60;;
78372;SDS011;67656;52.074;4.758;2023-07-31T17:00:29;4.53;;;1.58;;
78372;SDS011;67656;52.074;4.758;2023-07-31T17:05:30;5.57;;;1.38;;
78372;SDS011;67656;52.074;4.758;2023-07-31T17:10:30;4.00;;;1.40;;
78372;SDS011;67656;52.074;4.758;2023-07-31T17:15:31;7.13;;;1.40;;
78372;SDS011;67656;52.074;4.758;2023-07-31T17:20:31;4.03;;;1.20;;
78372;SDS011;67656;52.074;4.758;2023-07-31T17:25:32;5.30;;;1.45;;
78372;SDS011;67656;52.074;4.758;2023-07-31T17:30:32;8.13;;;1.88;;
78372;SDS011;67656;52.074;4.758;2023-07-31T17:35:32;5.72;;;2.00;;
78372;SDS011;67656;52.074;4.758;2023-07-31T17:40:33;5.85;;;1.40;;
78372;SDS011;67656;52.074;4.758;2023-07-31T17:45:33;5.60;;;1.40;;
78372;SDS011;67656;52.074;4.758;2023-07-31T17:50:34;3.65;;;1.70;;
78372;SDS011;67656;52.074;4.758;2023-07-31T17:55:35;8.02;;;1.80;;
78372;SDS011;67656;52.074;4.758;2023-07-31T18:00:35;6.05;;;1.80;;
78372;SDS011;67656;52.074;4.758;2023-07-31T18:05:36;8.80;;;2.25;;
78372;SDS011;67656;52.074;4.758;2023-07-31T18:10:42;5.97;;;2.13;;
78372;SDS011;67656;52.074;4.758;2023-07-31T18:15:44;7.82;;;1.90;;
78372;SDS011;67656;52.074;4.758;2023-07-31T18:20:45;5.03;;;1.70;;
78372;SDS011;67656;52.074;4.758;2023-07-31T18:25:46;7.75;;;1.80;;
78372;SDS011;67656;52.074;4.758;2023-07-31T18:30:47;4.97;;;1.75;;
78372;SDS011;67656;52.074;4.758;2023-07-31T18:35:48;8.00;;;2.30;;
78372;SDS011;67656;52.074;4.758;2023-07-31T18:40:48;10.35;;;1.90;;
78372;SDS011;67656;52.074;4.758;2023-07-31T18:45:48;9.32;;;1.77;;
78372;SDS011;67656;52.074;4.758;2023-07-31T18:50:50;5.30;;;1.27;;
78372;SDS011;67656;52.074;4.758;2023-07-31T18:55:51;7.63;;;1.67;;
78372;SDS011;67656;52.074;4.758;2023-07-31T19:00:52;5.53;;;1.55;;
78372;SDS011;67656;52.074;4.758;2023-07-31T19:05:59;6.25;;;1.70;;
78372;SDS011;67656;52.074;4.758;2023-07-31T19:11:01;4.07;;;1.38;;
78372;SDS011;67656;52.074;4.758;2023-07-31T19:16:01;5.22;;;1.35;;
78372;SDS011;67656;52.074;4.758;2023-07-31T19:21:02;6.03;;;1.10;;
78372;SDS011;67656;52.074;4.758;2023-07-31T19:26:02;3.47;;;1.08;;
78372;SDS011;67656;52.074;4.758;2023-07-31T19:31:03;3.17;;;1.17;;
78372;SDS011;67656;52.074;4.758;2023-07-31T19:36:03;5.70;;;1.42;;
78372;SDS011;67656;52.074;4.758;2023-07-31T19:41:04;3.97;;;1.23;;
78372;SDS011;67656;52.074;4.758;2023-07-31T19:46:04;6.55;;;1.20;;
78372;SDS011;67656;52.074;4.758;2023-07-31T19:51:05;6.63;;;1.40;;
78372;SDS011;67656;52.074;4.758;2023-07-31T19:56:05;5.88;;;1.42;;
78372;SDS011;67656;52.074;4.758;2023-07-31T20:01:06;7.47;;;1.52;;
78372;SDS011;67656;52.074;4.758;2023-07-31T20:06:06;8.82;;;1.45;;
78372;SDS011;67656;52.074;4.758;2023-07-31T20:11:07;11.52;;;1.83;;
78372;SDS011;67656;52.074;4.758;2023-07-31T20:16:07;5.63;;;1.80;;
78372;SDS011;67656;52.074;4.758;2023-07-31T20:21:11;5.68;;;1.50;;
78372;SDS011;67656;52.074;4.758;2023-07-31T20:26:12;7.15;;;1.60;;
78372;SDS011;67656;52.074;4.758;2023-07-31T20:31:12;6.32;;;1.55;;
78372;SDS011;67656;52.074;4.758;2023-07-31T20:36:16;4.78;;;1.20;;
78372;SDS011;67656;52.074;4.758;2023-07-31T20:41:16;4.25;;;1.50;;
78372;SDS011;67656;52.074;4.758;2023-07-31T20:46:16;4.05;;;1.50;;
78372;SDS011;67656;52.074;4.758;2023-07-31T20:51:17;8.23;;;1.50;;
78372;SDS011;67656;52.074;4.758;2023-07-31T20:56:18;9.70;;;1.40;;
78372;SDS011;67656;52.074;4.758;2023-07-31T21:01:19;5.55;;;1.25;;
78372;SDS011;67656;52.074;4.758;2023-07-31T21:06:20;4.28;;;1.20;;
78372;SDS011;67656;52.074;4.758;2023-07-31T21:11:20;7.47;;;1.63;;
78372;SDS011;67656;52.074;4.758;2023-07-31T21:16:21;4.07;;;1.60;;
78372;SDS011;67656;52.074;4.758;2023-07-31T21:21:21;5.28;;;1.17;;
78372;SDS011;67656;52.074;4.758;2023-07-31T21:26:22;6.72;;;1.55;;
78372;SDS011;67656;52.074;4.758;2023-07-31T21:31:22;7.63;;;1.75;;
78372;SDS011;67656;52.074;4.758;2023-07-31T21:36:23;6.93;;;1.60;;
78372;SDS011;67656;52.074;4.758;2023-07-31T21:41:23;11.38;;;1.90;;
78372;SDS011;67656;52.074;4.758;2023-07-31T21:46:24;7.25;;;2.00;;
78372;SDS011;67656;52.074;4.758;2023-07-31T21:51:24;4.72;;;1.45;;
78372;SDS011;67656;52.074;4.758;2023-07-31T21:56:25;3.63;;;1.50;;
78372;SDS011;67656;52.074;4.758;2023-07-31T22:01:26;2.55;;;0.95;;
78372;SDS011;67656;52.074;4.758;2023-07-31T22:06:26;4.75;;;1.10;;
78372;SDS011;67656;52.074;4.758;2023-07-31T22:11:26;4.55;;;1.33;;
78372;SDS011;67656;52.074;4.758;2023-07-31T22:16:27;3.55;;;1.20;;
78372;SDS011;67656;52.074;4.758;2023-07-31T22:21:27;2.88;;;1.20;;
78372;SDS011;67656;52.074;4.758;2023-07-31T22:26:28;4.05;;;1.40;;
78372;SDS011;67656;52.074;4.758;2023-07-31T22:31:28;5.47;;;1.30;;
78372;SDS011;67656;52.074;4.758;2023-07-31T22:36:29;6.00;;;1.58;;
78372;SDS011;67656;52.074;4.758;2023-07-31T22:41:29;4.45;;;1.30;;
78372;SDS011;67656;52.074;4.758;2023-07-31T22:46:30;4.15;;;1.20;;
78372;SDS011;67656;52.074;4.758;2023-07-31T22:51:31;5.03;;;1.40;;
78372;SDS011;67656;52.074;4.758;2023-07-31T22:56:31;3.83;;;1.40;;
78372;SDS011;67656;52.074;4.758;2023-07-31T23:01:32;4.85;;;1.20;;
78372;SDS011;67656;52.074;4.758;2023-07-31T23:06:32;4.50;;;1.55;;
78372;SDS011;67656;52.074;4.758;2023-07-31T23:11:32;5.65;;;1.60;;
78372;SDS011;67656;52.074;4.758;2023-07-31T23:16:33;4.60;;;1.50;;
78372;SDS011;67656;52.074;4.758;2023-07-31T23:21:33;3.92;;;1.50;;
78372;SDS011;67656;52.074;4.758;2023-07-31T23:26:34;3.92;;;1.58;;
78372;SDS011;67656;52.074;4.758;2023-07-31T23:31:34;5.43;;;1.50;;
78372;SDS011;67656;52.074;4.758;2023-07-31T23:36:34;6.47;;;1.50;;
78372;SDS011;67656;52.074;4.758;2023-07-31T23:41:35;4.43;;;1.70;;
78372;SDS011;67656;52.074;4.758;2023-07-31T23:46:35;6.47;;;1.80;;
78372;SDS011;67656;52.074;4.758;2023-07-31T23:51:36;7.10;;;2.10;;
78372;SDS011;67656;52.074;4.758;2023-07-31T23:56:37;8.82;;;2.00;;
